createdAt,value
2022-10-19T00:01:09.593Z,78.76
2022-10-19T00:03:37.872Z,79.52
2022-10-19T00:06:18.810Z,78.76
2022-10-19T00:08:46.081Z,78.73
2022-10-19T00:11:13.456Z,76.88
2022-10-19T00:13:40.874Z,76.87
2022-10-19T00:16:14.715Z,76.51
2022-10-19T00:18:46.024Z,75.86
2022-10-19T00:21:17.087Z,77.06
2022-10-19T00:23:45.279Z,76.85
2022-10-19T00:26:13.157Z,76.97
2022-10-19T00:28:40.227Z,76.16
2022-10-19T00:31:11.727Z,75.11
2022-10-19T00:33:39.319Z,75.16
2022-10-19T00:36:14.126Z,76.05
2022-10-19T00:38:42.370Z,79.62
2022-10-19T00:41:09.709Z,80.50
2022-10-19T00:44:04.368Z,76.91
2022-10-19T00:46:36.630Z,77.60
2022-10-19T00:49:17.643Z,76.88
2022-10-19T00:51:50.400Z,76.38
2022-10-19T00:54:18.641Z,78.01
2022-10-19T00:56:49.267Z,79.24
2022-10-19T00:59:20.578Z,79.80
2022-10-19T01:01:49.277Z,75.75
2022-10-19T01:04:16.583Z,74.74
2022-10-19T01:06:43.940Z,77.81
2022-10-19T01:09:11.032Z,79.33
2022-10-19T01:12:04.412Z,77.68
2022-10-19T01:15:15.727Z,78.32
2022-10-19T01:17:58.272Z,77.22
2022-10-19T01:20:33.803Z,78.40
2022-10-19T01:23:45.391Z,79.74
2022-10-19T01:26:41.539Z,79.86
2022-10-19T01:29:32.629Z,76.60
2022-10-19T01:32:27.283Z,78.87
2022-10-19T01:35:10.295Z,79.36
2022-10-19T01:37:50.814Z,80.28
2022-10-19T01:40:52.733Z,81.29
2022-10-19T01:44:01.353Z,78.76
2022-10-19T01:46:43.696Z,77.63
2022-10-19T01:49:29.277Z,79.61
2022-10-19T01:52:03.988Z,81.37
2022-10-19T01:54:38.748Z,82.04
2022-10-19T01:57:09.352Z,79.74
2022-10-19T01:59:38.793Z,76.60
2022-10-19T02:02:08.900Z,76.65
2022-10-19T02:04:38.204Z,80.11
2022-10-19T02:07:08.260Z,79.73
2022-10-19T02:09:35.942Z,78.99
2022-10-19T02:12:09.397Z,79.06
2022-10-19T02:14:51.779Z,78.56
2022-10-19T02:17:25.358Z,77.15
2022-10-19T02:19:54.896Z,77.22
2022-10-19T02:22:22.375Z,77.42
2022-10-19T02:24:49.512Z,77.58
2022-10-19T02:27:17.316Z,76.74
2022-10-19T02:29:44.931Z,76.89
2022-10-19T02:32:12.441Z,78.21
2022-10-19T02:34:40.195Z,77.44
2022-10-19T02:37:07.367Z,81.16
2022-10-19T02:39:34.667Z,81.97
2022-10-19T02:42:17.111Z,82.18
2022-10-19T02:45:02.559Z,82.34
2022-10-19T02:47:42.802Z,79.72
2022-10-19T02:50:11.762Z,82.06
2022-10-19T02:52:40.619Z,81.92
2022-10-19T02:55:09.380Z,82.54
2022-10-19T02:57:37.401Z,82.82
2022-10-19T03:00:07.637Z,84.13
2022-10-19T03:02:35.077Z,82.02
2022-10-19T03:05:02.797Z,83.05
2022-10-19T03:07:30.079Z,83.82
2022-10-19T03:09:57.193Z,82.85
2022-10-19T03:12:24.120Z,83.92
2022-10-19T03:14:51.121Z,84.52
2022-10-19T03:17:18.150Z,84.54
2022-10-19T03:19:45.356Z,84.80
2022-10-19T03:22:15.085Z,85.39
2022-10-19T03:24:42.121Z,83.40
2022-10-19T03:27:09.628Z,83.60
2022-10-19T03:29:36.559Z,86.34
2022-10-19T03:32:04.270Z,87.06
2022-10-19T03:34:31.234Z,85.99
2022-10-19T03:36:59.388Z,85.96
2022-10-19T03:39:26.606Z,83.47
2022-10-19T03:41:53.790Z,83.33
2022-10-19T03:44:20.710Z,84.23
2022-10-19T03:46:47.978Z,82.46
2022-10-19T03:49:15.041Z,81.26
2022-10-19T03:51:42.418Z,81.47
2022-10-19T03:54:15.619Z,81.63
2022-10-19T03:56:43.647Z,80.76
2022-10-19T03:59:15.842Z,83.05
2022-10-19T04:01:45.855Z,84.12
2022-10-19T04:04:19.397Z,82.71
2022-10-19T04:06:50.171Z,83.12
2022-10-19T04:09:21.007Z,82.94
2022-10-19T04:11:48.830Z,83.71
2022-10-19T04:14:31.607Z,83.06
2022-10-19T04:17:06.489Z,84.39
2022-10-19T04:19:33.473Z,84.43
2022-10-19T04:22:00.681Z,84.43
2022-10-19T04:24:27.785Z,82.85
2022-10-19T04:26:56.594Z,82.67
2022-10-19T04:29:29.606Z,82.27
2022-10-19T04:31:58.591Z,84.31
2022-10-19T04:34:25.592Z,84.11
2022-10-19T04:36:53.933Z,84.57
2022-10-19T04:39:20.913Z,83.34
2022-10-19T04:41:48.019Z,85.69
2022-10-19T04:44:15.593Z,84.81
2022-10-19T04:46:42.992Z,84.60
2022-10-19T04:49:09.987Z,83.24
2022-10-19T04:51:37.099Z,85.01
2022-10-19T04:54:04.727Z,84.82
2022-10-19T04:56:32.608Z,83.99
2022-10-19T04:59:01.248Z,83.47
2022-10-19T05:01:31.168Z,83.58
2022-10-19T05:04:01.366Z,84.53
2022-10-19T05:06:30.787Z,85.63
2022-10-19T05:08:58.438Z,85.38
2022-10-19T05:11:26.479Z,87.04
2022-10-19T05:13:53.466Z,85.79
2022-10-19T05:16:22.679Z,84.74
2022-10-19T05:18:52.190Z,85.24
2022-10-19T05:21:21.809Z,84.25
2022-10-19T05:23:53.148Z,85.86
2022-10-19T05:26:23.344Z,84.40
2022-10-19T05:29:04.683Z,85.81
2022-10-19T05:31:33.824Z,84.71
2022-10-19T05:34:01.505Z,85.40
2022-10-19T05:36:38.041Z,85.07
2022-10-19T05:39:17.509Z,87.38
2022-10-19T05:41:46.359Z,84.58
2022-10-19T05:44:20.407Z,85.61
2022-10-19T05:46:48.942Z,85.42
2022-10-19T05:49:18.779Z,85.57
2022-10-19T05:51:45.899Z,86.11
2022-10-19T05:54:14.208Z,84.56
2022-10-19T05:56:42.556Z,85.19
2022-10-19T05:59:14.436Z,85.54
2022-10-19T06:01:41.479Z,85.22
2022-10-19T06:04:08.879Z,84.68
2022-10-19T06:06:35.957Z,84.02
2022-10-19T06:09:03.776Z,83.13
2022-10-19T06:11:35.120Z,84.84
2022-10-19T06:14:06.888Z,84.20
2022-10-19T06:16:35.192Z,85.90
2022-10-19T06:19:02.597Z,84.55
2022-10-19T06:21:31.764Z,85.16
2022-10-19T06:24:03.084Z,86.42
2022-10-19T06:26:32.028Z,86.77
2022-10-19T06:29:00.802Z,86.11
2022-10-19T06:31:33.212Z,85.91
2022-10-19T06:34:01.551Z,86.66
2022-10-19T06:36:30.807Z,86.93
2022-10-19T06:38:59.881Z,85.59
2022-10-19T06:41:27.821Z,87.81
2022-10-19T06:43:56.051Z,85.72
2022-10-19T06:46:25.417Z,86.12
2022-10-19T06:48:58.604Z,86.09
2022-10-19T06:51:27.936Z,87.26
2022-10-19T06:53:57.220Z,85.88
2022-10-19T06:56:25.839Z,86.59
2022-10-19T06:58:53.714Z,86.14
2022-10-19T07:01:21.204Z,87.12
2022-10-19T07:03:50.046Z,85.61
2022-10-19T07:06:17.154Z,86.21
2022-10-19T07:08:44.497Z,86.22
2022-10-19T07:11:16.929Z,85.32
2022-10-19T07:13:44.300Z,84.32
2022-10-19T07:16:19.515Z,85.63
2022-10-19T07:18:51.555Z,85.33
2022-10-19T07:21:21.711Z,86.50
2022-10-19T07:23:49.427Z,85.95
2022-10-19T07:26:22.218Z,85.83
2022-10-19T07:28:50.136Z,84.63
2022-10-19T07:31:20.682Z,85.64
2022-10-19T07:33:55.514Z,86.68
2022-10-19T07:36:23.620Z,84.68
2022-10-19T07:38:51.145Z,85.34
2022-10-19T07:41:21.887Z,87.41
2022-10-19T07:43:50.485Z,84.60
2022-10-19T07:46:21.476Z,85.68
2022-10-19T07:48:49.073Z,85.00
2022-10-19T07:51:18.715Z,85.54
2022-10-19T07:53:46.660Z,84.22
2022-10-19T07:56:26.256Z,82.97
2022-10-19T07:58:56.644Z,84.70
2022-10-19T08:01:27.811Z,82.87
2022-10-19T08:06:44.142Z,83.04
2022-10-19T08:09:22.801Z,85.80
2022-10-19T08:11:58.673Z,84.42
2022-10-19T08:14:26.200Z,84.69
2022-10-19T08:16:53.104Z,86.21
2022-10-19T08:19:20.429Z,84.35
2022-10-19T08:21:47.536Z,86.61
2022-10-19T08:24:17.886Z,85.54
2022-10-19T08:26:45.197Z,82.15
2022-10-19T08:29:15.856Z,84.54
2022-10-19T08:31:45.217Z,84.00
2022-10-19T08:34:14.794Z,84.32
2022-10-19T08:39:14.634Z,84.62
2022-10-19T08:45:09.351Z,85.05
2022-10-19T08:47:58.992Z,84.84
2022-10-19T08:50:40.601Z,84.68
2022-10-19T08:53:19.355Z,85.38
2022-10-19T08:56:26.870Z,84.29
2022-10-19T08:59:19.655Z,83.33
2022-10-19T09:01:57.034Z,85.97
2022-10-19T09:04:42.444Z,84.11
2022-10-19T09:07:31.096Z,83.64
2022-10-19T09:10:15.944Z,84.56
2022-10-19T09:12:58.425Z,85.94
2022-10-19T09:15:45.798Z,84.59
2022-10-19T09:18:22.295Z,83.70
2022-10-19T09:20:56.047Z,85.40
2022-10-19T09:23:32.095Z,83.01
2022-10-19T09:25:59.061Z,83.12
2022-10-19T09:28:56.050Z,83.80
2022-10-19T09:31:46.159Z,83.17
2022-10-19T09:34:26.834Z,82.25
2022-10-19T09:36:59.426Z,82.13
2022-10-19T09:39:29.697Z,82.37
2022-10-19T09:42:33.858Z,82.58
2022-10-19T09:45:16.536Z,83.04
2022-10-19T09:47:48.240Z,82.68
2022-10-19T09:50:27.198Z,82.38
2022-10-19T09:52:58.519Z,81.88
2022-10-19T09:55:39.313Z,82.44
2022-10-19T09:58:21.012Z,81.44
2022-10-19T10:00:56.773Z,82.56
2022-10-19T10:03:40.780Z,80.88
2022-10-19T10:06:15.005Z,82.47
2022-10-19T10:08:58.016Z,81.41
2022-10-19T10:11:38.231Z,82.07
2022-10-19T10:14:17.237Z,82.63
2022-10-19T10:16:44.343Z,84.11
2022-10-19T10:19:17.043Z,83.42
2022-10-19T10:21:57.903Z,82.72
2022-10-19T10:24:31.349Z,81.90
2022-10-19T10:27:05.602Z,81.29
2022-10-19T10:29:39.001Z,81.86
2022-10-19T10:32:21.265Z,83.39
2022-10-19T10:35:01.850Z,82.59
2022-10-19T10:37:44.489Z,81.04
2022-10-19T10:40:31.553Z,81.61
2022-10-19T10:43:17.530Z,81.51
2022-10-19T10:45:48.747Z,83.04
2022-10-19T10:48:32.821Z,80.09
2022-10-19T10:51:01.997Z,80.63
2022-10-19T10:53:45.090Z,80.84
2022-10-19T10:56:29.805Z,82.27
2022-10-19T10:59:04.227Z,80.68
2022-10-19T11:01:41.587Z,80.45
2022-10-19T11:04:19.926Z,79.42
2022-10-19T11:06:57.027Z,79.92
2022-10-19T11:09:38.263Z,79.42
2022-10-19T11:12:11.295Z,79.91
2022-10-19T11:14:51.140Z,82.15
2022-10-19T11:17:33.165Z,83.14
2022-10-19T11:20:19.048Z,81.97
2022-10-19T11:23:12.793Z,79.07
2022-10-19T11:26:04.411Z,81.09
2022-10-19T11:29:06.434Z,80.72
2022-10-19T11:31:33.584Z,80.03
2022-10-19T11:34:06.453Z,81.57
2022-10-19T11:37:02.459Z,79.52
2022-10-19T11:39:51.708Z,80.60
2022-10-19T11:45:47.482Z,81.08
2022-10-19T11:48:43.740Z,80.02
2022-10-19T11:51:37.194Z,81.18
2022-10-19T11:54:44.936Z,79.84
2022-10-19T11:57:17.969Z,79.48
2022-10-19T12:00:37.662Z,78.60
2022-10-19T12:03:27.778Z,80.87
2022-10-19T12:06:29.360Z,78.49
2022-10-19T12:09:38.527Z,81.67
2022-10-19T12:12:30.587Z,80.51
2022-10-19T12:15:30.482Z,80.01
2022-10-19T12:18:06.885Z,79.08
2022-10-19T12:20:54.433Z,78.84
2022-10-19T12:23:34.236Z,78.31
2022-10-19T12:26:09.259Z,78.46
2022-10-19T12:28:41.787Z,78.29
2022-10-19T12:31:10.929Z,80.20
2022-10-19T12:34:34.842Z,80.41
2022-10-19T12:37:25.469Z,78.73
2022-10-19T12:39:59.194Z,78.61
2022-10-19T12:43:14.440Z,81.49
2022-10-19T12:46:24.251Z,79.44
2022-10-19T12:51:55.827Z,80.93
2022-10-19T12:54:29.083Z,80.83
2022-10-19T12:57:00.220Z,81.23
2022-10-19T12:59:34.469Z,83.03
2022-10-19T13:02:05.763Z,80.50
2022-10-19T13:04:37.855Z,83.25
2022-10-19T13:07:10.891Z,80.19
2022-10-19T13:09:42.157Z,79.97
2022-10-19T13:12:21.699Z,80.68
2022-10-19T13:14:56.409Z,79.38
2022-10-19T13:17:38.247Z,79.96
2022-10-19T13:20:14.825Z,80.37
2022-10-19T13:23:01.630Z,81.13
2022-10-19T13:25:33.037Z,78.09
2022-10-19T13:28:15.240Z,77.63
2022-10-19T13:30:42.303Z,80.94
2022-10-19T13:33:27.735Z,79.75
2022-10-19T13:36:00.828Z,78.84
2022-10-19T13:38:53.148Z,81.22
2022-10-19T13:41:25.844Z,79.11
2022-10-19T13:44:01.693Z,80.09
2022-10-19T13:46:31.309Z,80.50
2022-10-19T13:49:19.046Z,79.78
2022-10-19T13:51:51.978Z,80.18
2022-10-19T13:54:42.076Z,79.44
2022-10-19T13:57:17.675Z,79.04
2022-10-19T14:00:11.784Z,79.98
2022-10-19T14:02:58.668Z,79.49
2022-10-19T14:09:18.823Z,80.58
2022-10-19T14:11:51.932Z,78.13
2022-10-19T14:14:24.997Z,79.63
2022-10-19T14:17:05.577Z,79.79
2022-10-19T14:19:46.762Z,80.68
2022-10-19T14:22:40.835Z,81.37
2022-10-19T14:25:21.210Z,78.90
2022-10-19T14:28:06.748Z,79.67
2022-10-19T14:30:36.366Z,80.17
2022-10-19T14:33:10.775Z,79.22
2022-10-19T14:35:41.257Z,78.27
2022-10-19T14:38:26.478Z,79.59
2022-10-19T14:40:53.644Z,80.09
2022-10-19T14:43:31.275Z,80.83
2022-10-19T14:46:15.066Z,80.35
2022-10-19T14:48:51.165Z,81.59
2022-10-19T14:51:46.253Z,81.56
2022-10-19T14:54:29.086Z,80.87
2022-10-19T14:57:13.224Z,79.57
2022-10-19T14:59:50.753Z,78.70
2022-10-19T15:02:44.405Z,79.96
2022-10-19T15:05:26.392Z,79.17
2022-10-19T15:07:54.776Z,78.92
2022-10-19T15:10:30.314Z,81.00
2022-10-19T15:13:06.585Z,80.94
2022-10-19T15:15:36.020Z,82.19
2022-10-19T15:18:06.277Z,80.76
2022-10-19T15:20:49.083Z,81.03
2022-10-19T15:23:38.066Z,80.67
2022-10-19T15:26:24.564Z,80.85
2022-10-19T15:28:52.827Z,80.85
2022-10-19T15:31:29.188Z,80.71
2022-10-19T15:33:59.291Z,80.89
2022-10-19T15:36:28.547Z,81.63
2022-10-19T15:39:06.337Z,82.16
2022-10-19T15:41:45.774Z,79.42
2022-10-19T15:44:42.853Z,81.14
2022-10-19T15:47:16.251Z,80.59
2022-10-19T15:49:43.369Z,82.25
2022-10-19T15:52:22.363Z,80.86
2022-10-19T15:54:51.806Z,79.75
2022-10-19T15:57:35.558Z,80.37
2022-10-19T16:00:16.419Z,78.69
2022-10-19T16:02:44.056Z,81.72
2022-10-19T16:05:11.530Z,81.69
2022-10-19T16:07:40.959Z,81.13
2022-10-19T16:10:21.931Z,80.98
2022-10-19T16:12:49.348Z,80.89
2022-10-19T16:15:23.863Z,80.70
2022-10-19T16:17:55.576Z,80.42
2022-10-19T16:20:25.149Z,79.93
2022-10-19T16:22:52.223Z,79.92
2022-10-19T16:25:20.088Z,80.29
2022-10-19T16:27:47.333Z,79.34
2022-10-19T16:30:14.647Z,80.37
2022-10-19T16:35:10.083Z,80.15
2022-10-19T16:37:37.570Z,80.56
2022-10-19T16:40:05.618Z,80.12
2022-10-19T16:42:34.822Z,78.88
2022-10-19T16:45:02.157Z,80.27
2022-10-19T16:47:29.136Z,79.75
2022-10-19T16:50:00.353Z,80.27
2022-10-19T16:52:28.952Z,81.27
2022-10-19T16:54:56.621Z,81.06
2022-10-19T16:57:23.723Z,79.67
2022-10-19T17:02:26.479Z,79.78
2022-10-19T17:04:53.359Z,79.59
2022-10-19T17:07:20.337Z,77.60
2022-10-19T17:09:49.783Z,77.70
2022-10-19T17:12:19.483Z,78.73
2022-10-19T17:14:46.423Z,80.39
2022-10-19T17:17:13.545Z,79.47
2022-10-19T17:19:40.618Z,79.32
2022-10-19T17:22:07.918Z,78.43
2022-10-19T17:24:35.107Z,79.52
2022-10-19T17:27:03.366Z,77.77
2022-10-19T17:29:31.247Z,81.12
2022-10-19T17:31:58.700Z,80.39
2022-10-19T17:34:25.977Z,78.37
2022-10-19T17:36:52.983Z,79.06
2022-10-19T17:39:27.222Z,80.67
2022-10-19T17:42:01.652Z,82.07
2022-10-19T17:44:30.608Z,81.95
2022-10-19T17:46:58.206Z,78.72
2022-10-19T17:49:25.327Z,79.90
2022-10-19T17:51:56.150Z,80.43
2022-10-19T17:54:23.210Z,79.22
2022-10-19T17:56:50.212Z,80.41
2022-10-19T17:59:17.272Z,79.78
2022-10-19T18:01:45.462Z,79.43
2022-10-19T18:04:12.403Z,80.64
2022-10-19T18:06:39.522Z,79.51
2022-10-19T18:09:10.565Z,79.44
2022-10-19T18:11:42.726Z,80.89
2022-10-19T18:14:11.979Z,81.12
2022-10-19T18:16:44.565Z,80.88
2022-10-19T18:19:14.544Z,80.85
2022-10-19T18:21:44.344Z,80.76
2022-10-19T18:24:16.843Z,80.68
2022-10-19T18:26:43.968Z,80.08
2022-10-19T18:29:16.610Z,81.66
2022-10-19T18:31:43.875Z,80.07
2022-10-19T18:34:16.013Z,80.11
2022-10-19T18:36:43.832Z,80.63
2022-10-19T18:39:13.088Z,80.02
2022-10-19T18:41:41.121Z,79.67
2022-10-19T18:44:11.413Z,79.33
2022-10-19T18:46:38.554Z,80.16
2022-10-19T18:49:08.261Z,81.24
2022-10-19T18:51:36.077Z,80.77
2022-10-19T18:54:03.193Z,79.49
2022-10-19T18:56:30.227Z,79.55
2022-10-19T18:58:57.472Z,81.29
2022-10-19T19:01:27.627Z,79.56
2022-10-19T19:03:58.047Z,81.00
2022-10-19T19:06:33.085Z,80.60
2022-10-19T19:09:01.923Z,80.33
2022-10-19T19:11:35.929Z,80.15
2022-10-19T19:14:20.948Z,78.86
2022-10-19T19:16:48.330Z,80.20
2022-10-19T19:19:17.984Z,80.70
2022-10-19T19:21:45.238Z,81.33
2022-10-19T19:24:16.337Z,79.61
2022-10-19T19:26:49.477Z,79.95
2022-10-19T19:29:18.092Z,80.71
2022-10-19T19:31:45.532Z,81.22
2022-10-19T19:34:12.580Z,79.97
2022-10-19T19:36:48.088Z,79.63
2022-10-19T19:39:19.346Z,81.19
2022-10-19T19:41:47.809Z,81.24
2022-10-19T19:44:14.880Z,80.14
2022-10-19T19:46:41.861Z,80.84
2022-10-19T19:49:09.241Z,81.81
2022-10-19T19:51:36.487Z,81.54
2022-10-19T19:54:04.323Z,81.87
2022-10-19T19:56:32.015Z,80.64
2022-10-19T19:59:03.086Z,80.93
2022-10-19T20:01:30.601Z,81.19
2022-10-19T20:03:59.611Z,80.16
2022-10-19T20:06:26.590Z,80.37
2022-10-19T20:08:55.236Z,80.02
2022-10-19T20:11:24.472Z,80.63
2022-10-19T20:13:51.696Z,81.65
2022-10-19T20:16:26.537Z,82.18
2022-10-19T20:19:12.985Z,80.11
2022-10-19T20:21:40.900Z,79.34
2022-10-19T20:24:08.259Z,80.15
2022-10-19T20:26:35.845Z,78.77
2022-10-19T20:29:04.742Z,79.17
2022-10-19T20:31:33.546Z,81.62
2022-10-19T20:34:00.688Z,81.64
2022-10-19T20:36:27.863Z,80.59
2022-10-19T20:38:57.537Z,80.44
2022-10-19T20:41:28.207Z,81.84
2022-10-19T20:43:56.206Z,80.21
2022-10-19T20:46:27.500Z,82.03
2022-10-19T20:48:59.504Z,80.36
2022-10-19T20:51:31.908Z,80.28
2022-10-19T20:54:01.912Z,80.82
2022-10-19T20:56:34.573Z,80.62
2022-10-19T20:59:08.689Z,80.56
2022-10-19T21:01:38.387Z,81.18
2022-10-19T21:04:08.853Z,80.34
2022-10-19T21:06:40.223Z,82.16
2022-10-19T21:09:08.274Z,80.70
2022-10-19T21:11:38.897Z,79.96
2022-10-19T21:14:13.883Z,78.57
2022-10-19T21:16:41.417Z,79.71
2022-10-19T21:19:20.873Z,80.43
2022-10-19T21:21:52.546Z,81.67
2022-10-19T21:24:27.052Z,83.17
2022-10-19T21:26:54.388Z,81.96
2022-10-19T21:29:21.596Z,82.92
2022-10-19T21:31:52.478Z,81.67
2022-10-19T21:34:26.540Z,80.60
2022-10-19T21:36:54.872Z,79.31
2022-10-19T21:39:22.554Z,79.45
2022-10-19T21:41:50.761Z,78.80
2022-10-19T21:44:18.946Z,80.06
2022-10-19T21:46:47.960Z,79.03
2022-10-19T21:49:15.818Z,82.59
2022-10-19T21:51:47.513Z,82.16
2022-10-19T21:54:18.679Z,82.01
2022-10-19T21:56:47.081Z,81.59
2022-10-19T21:59:15.507Z,82.67
2022-10-19T22:01:43.015Z,83.18
2022-10-19T22:04:15.228Z,83.14
2022-10-19T22:06:43.329Z,83.23
2022-10-19T22:09:16.847Z,82.46
2022-10-19T22:11:44.237Z,82.89
2022-10-19T22:14:13.992Z,82.81
2022-10-19T22:16:42.328Z,80.81
2022-10-19T22:19:10.123Z,80.86
2022-10-19T22:24:14.778Z,82.26
2022-10-19T22:26:50.613Z,82.17
2022-10-19T22:29:17.955Z,81.78
2022-10-19T22:31:45.236Z,79.71
2022-10-19T22:34:17.672Z,80.30
2022-10-19T22:36:45.666Z,80.65
2022-10-19T22:39:14.103Z,80.22
2022-10-19T22:41:41.426Z,80.71
2022-10-19T22:44:08.472Z,82.29
2022-10-19T22:46:35.564Z,79.24
2022-10-19T22:49:02.667Z,81.38
2022-10-19T22:51:30.107Z,82.95
2022-10-19T22:53:57.114Z,82.36
2022-10-19T22:56:24.156Z,80.90
2022-10-19T22:58:51.246Z,80.68
2022-10-19T23:01:18.657Z,80.40
2022-10-19T23:03:45.716Z,78.92
2022-10-19T23:06:15.662Z,81.35
2022-10-19T23:08:44.031Z,83.61
2022-10-19T23:11:11.864Z,84.23
2022-10-19T23:13:39.460Z,80.88
2022-10-19T23:16:07.325Z,81.45
2022-10-19T23:18:36.637Z,80.79
2022-10-19T23:21:07.824Z,78.05
2022-10-19T23:23:35.924Z,80.46
2022-10-19T23:26:09.397Z,82.36
2022-10-19T23:28:38.713Z,79.93
2022-10-19T23:31:24.748Z,80.26
2022-10-19T23:33:53.811Z,80.27
2022-10-19T23:36:27.911Z,79.62
2022-10-19T23:38:56.970Z,81.75
2022-10-19T23:41:24.258Z,81.73
2022-10-19T23:43:51.573Z,82.86
2022-10-19T23:46:19.033Z,82.74
2022-10-19T23:48:46.059Z,82.21
2022-10-19T23:51:16.177Z,80.13
2022-10-19T23:53:47.203Z,81.77
2022-10-19T23:56:20.871Z,81.96
2022-10-19T23:58:48.900Z,81.91
